Terminal Aerodrome Forecast
Issued by NWS Jackson, MS

Home | Current Version | Previous Version | Text Only | Print | Product List | Glossary On
Versions: 1 2 3 4 5 6 7 8 9 10 11 12 13 14 15 16 17
788
FTUS44 KJAN 301121
TAFJAN
TAF
KJAN 301121Z 3012/3112 35005KT P6SM FEW025 SCT040
     FM302000 34006KT P6SM VCTS SCT040 BKN060CB BKN250
     FM310100 VRB03KT P6SM FEW050 SCT070 SCT250=

USA.gov is the U.S. government's official web portal to all federal, state and local government web resources and services.